createdAt,value
2018-10-12T00:00:53.703Z,0
2018-10-12T00:01:53.209Z,0
2018-10-12T00:02:53.751Z,0
2018-10-12T00:03:53.769Z,0
2018-10-12T00:04:53.786Z,0
2018-10-12T00:05:53.809Z,0
2018-10-12T00:06:53.570Z,0
2018-10-12T00:07:53.588Z,0
2018-10-12T00:08:53.612Z,0
2018-10-12T00:09:53.889Z,0
2018-10-12T00:11:08.578Z,0
2018-10-12T00:11:53.678Z,0
2018-10-12T00:13:08.619Z,0
2018-10-12T00:13:53.975Z,0
2018-10-12T00:14:54.004Z,0
2018-10-12T00:15:53.500Z,0
2018-10-12T00:16:54.144Z,0
2018-10-12T00:18:54.097Z,0
2018-10-12T00:20:08.761Z,0
2018-10-12T00:20:53.862Z,0
2018-10-12T00:22:08.543Z,0
2018-10-12T00:22:54.161Z,0
2018-10-12T00:23:54.185Z,0
2018-10-12T00:24:53.958Z,0
2018-10-12T00:26:08.625Z,0
2018-10-12T00:26:53.986Z,0
2018-10-12T00:27:54.274Z,0
2018-10-12T00:29:54.056Z,0
2018-10-12T00:32:54.373Z,0
2018-10-12T00:33:54.137Z,0
2018-10-12T00:35:09.075Z,0
2018-10-12T00:36:09.090Z,0
2018-10-12T00:36:54.476Z,0
2018-10-12T00:37:54.474Z,0
2018-10-12T00:38:54.497Z,0
2018-10-12T00:40:09.180Z,0
2018-10-12T00:40:54.532Z,0
2018-10-12T00:42:08.959Z,0
2018-10-12T00:43:09.237Z,0
2018-10-12T00:43:54.701Z,0
2018-10-12T00:44:54.107Z,0
2018-10-12T00:45:54.648Z,0
2018-10-12T00:46:54.665Z,0
2018-10-12T00:47:54.681Z,0
2018-10-12T00:48:54.702Z,0
2018-10-12T00:49:55.228Z,0
2018-10-12T00:50:54.750Z,0
2018-10-12T00:51:54.771Z,0
2018-10-12T00:52:54.532Z,0
2018-10-12T00:53:54.296Z,0
2018-10-12T00:54:54.830Z,0
2018-10-12T00:55:54.850Z,0
2018-10-12T00:56:54.614Z,0
2018-10-12T00:58:09.548Z,0
2018-10-12T00:58:54.925Z,0
2018-10-12T00:59:54.681Z,0
2018-10-12T01:00:54.954Z,0
2018-10-12T01:01:54.718Z,0
2018-10-12T01:02:54.735Z,0
2018-10-12T01:03:55.016Z,0
2018-10-12T01:04:54.779Z,0
2018-10-12T01:06:09.716Z,0
2018-10-12T01:06:54.786Z,0
2018-10-12T01:07:55.203Z,0
2018-10-12T01:09:09.262Z,0
2018-10-12T01:09:55.149Z,0
2018-10-12T01:10:55.205Z,0
2018-10-12T01:11:54.924Z,0
2018-10-12T01:12:55.208Z,0
2018-10-12T01:14:09.882Z,0
2018-10-12T01:17:09.943Z,0
2018-10-12T01:17:55.315Z,0
2018-10-12T01:18:55.326Z,0
2018-10-12T01:20:10.010Z,0
2018-10-12T01:20:55.364Z,0
2018-10-12T01:22:10.050Z,0
2018-10-12T01:23:10.093Z,0
2018-10-12T01:24:10.093Z,0
2018-10-12T01:24:54.933Z,0
2018-10-12T01:25:55.213Z,0
2018-10-12T01:26:55.513Z,0
2018-10-12T01:27:55.519Z,0
2018-10-12T01:29:09.935Z,0
2018-10-12T01:29:55.295Z,0
2018-10-12T01:30:55.633Z,0
2018-10-12T01:31:55.603Z,0
2018-10-12T01:32:55.631Z,0
2018-10-12T01:33:55.636Z,0
2018-10-12T01:35:55.687Z,0
2018-10-12T01:37:10.358Z,0
2018-10-12T01:37:55.719Z,0
2018-10-12T01:38:55.229Z,0
2018-10-12T01:40:10.163Z,0
2018-10-12T01:40:55.788Z,0
2018-10-12T01:41:55.808Z,0
2018-10-12T01:42:55.819Z,0
2018-10-12T01:43:55.847Z,0
2018-10-12T01:44:55.874Z,0
2018-10-12T01:45:55.620Z,0
2018-10-12T01:47:10.570Z,0
2018-10-12T01:47:55.929Z,0
2018-10-12T01:49:55.962Z,0
2018-10-12T01:50:55.986Z,0
2018-10-12T01:52:56.038Z,0
2018-10-12T01:53:56.046Z,0
2018-10-12T01:55:10.727Z,0
2018-10-12T01:55:56.090Z,0
2018-10-12T01:56:55.593Z,0
2018-10-12T01:57:55.875Z,0
2018-10-12T01:58:56.157Z,0
2018-10-12T01:59:56.171Z,0
2018-10-12T02:01:25.514Z,0
2018-10-12T02:01:56.213Z,0
2018-10-12T02:02:56.237Z,0
2018-10-12T02:03:55.744Z,0
2018-10-12T02:05:56.040Z,0
2018-10-12T02:06:56.061Z,0
2018-10-12T02:07:56.332Z,0
2018-10-12T02:08:56.095Z,0
2018-10-12T02:09:56.552Z,0
2018-10-12T02:10:56.396Z,0
2018-10-12T02:11:56.158Z,0
2018-10-12T02:12:56.180Z,0
2018-10-12T02:13:56.456Z,0
2018-10-12T02:14:56.484Z,0
2018-10-12T02:16:11.160Z,0
2018-10-12T02:17:11.178Z,0
2018-10-12T02:19:10.963Z,0
2018-10-12T02:19:56.581Z,0
2018-10-12T02:20:56.605Z,0
2018-10-12T02:22:56.643Z,0
2018-10-12T02:24:11.321Z,0
2018-10-12T02:24:56.684Z,0
2018-10-12T02:25:56.700Z,0
2018-10-12T02:26:56.724Z,0
2018-10-12T02:27:56.741Z,0
2018-10-12T02:28:56.763Z,0
2018-10-12T02:29:56.531Z,0
2018-10-12T02:30:56.808Z,0
2018-10-12T02:31:56.309Z,0
2018-10-12T02:33:56.987Z,0
2018-10-12T02:34:56.933Z,0
2018-10-12T02:35:56.906Z,0
2018-10-12T02:36:56.928Z,0
2018-10-12T02:37:56.698Z,0
2018-10-12T02:38:56.997Z,0
2018-10-12T02:39:56.995Z,0
2018-10-12T02:40:57.007Z,0
2018-10-12T02:42:11.694Z,0
2018-10-12T02:42:56.805Z,0
2018-10-12T02:43:57.073Z,0
2018-10-12T02:44:57.093Z,0
2018-10-12T02:45:56.950Z,0
2018-10-12T02:46:57.129Z,0
2018-10-12T02:47:57.158Z,0
2018-10-12T02:49:56.939Z,0
2018-10-12T02:50:57.212Z,0
2018-10-12T02:51:56.979Z,0
2018-10-12T02:52:57.251Z,0
2018-10-12T02:53:57.279Z,0
2018-10-12T02:54:57.042Z,0
2018-10-12T02:55:57.313Z,0
2018-10-12T02:57:11.999Z,0
2018-10-12T02:58:12.015Z,0
2018-10-12T02:58:57.383Z,0
2018-10-12T03:00:11.801Z,0
2018-10-12T03:00:57.412Z,0
2018-10-12T03:01:57.173Z,0
2018-10-12T03:04:12.135Z,0
2018-10-12T03:04:57.506Z,0
2018-10-12T03:05:57.514Z,0
2018-10-12T03:06:57.531Z,0
2018-10-12T03:08:12.217Z,0
2018-10-12T03:08:57.573Z,0
2018-10-12T03:09:57.592Z,0
2018-10-12T03:10:57.610Z,0
2018-10-12T03:11:57.377Z,0
2018-10-12T03:12:57.395Z,0
2018-10-12T03:13:57.684Z,0
2018-10-12T03:14:57.694Z,0
2018-10-12T03:15:57.715Z,0
2018-10-12T03:16:57.742Z,0
2018-10-12T03:17:57.818Z,0
2018-10-12T03:18:57.780Z,0
2018-10-12T03:19:57.537Z,0
2018-10-12T03:20:57.811Z,0
2018-10-12T03:21:57.845Z,0
2018-10-12T03:22:57.855Z,0
2018-10-12T03:24:57.891Z,0
2018-10-12T03:25:57.913Z,0
2018-10-12T03:27:57.992Z,0
2018-10-12T03:29:12.638Z,0
2018-10-12T03:29:57.999Z,0
2018-10-12T03:31:12.681Z,0
2018-10-12T03:31:57.783Z,0
2018-10-12T03:32:58.060Z,0
2018-10-12T03:33:58.070Z,0
2018-10-12T03:35:12.757Z,0
2018-10-12T03:36:12.774Z,0
2018-10-12T03:37:12.557Z,0
2018-10-12T03:38:12.811Z,0
2018-10-12T03:38:58.176Z,0
2018-10-12T03:40:12.603Z,0
2018-10-12T03:40:58.227Z,0
2018-10-12T03:41:57.721Z,0
2018-10-12T03:42:58.413Z,0
2018-10-12T03:44:58.289Z,0
2018-10-12T03:45:58.313Z,0
2018-10-12T03:46:58.333Z,0
2018-10-12T03:48:13.017Z,0
2018-10-12T03:49:13.037Z,0
2018-10-12T03:49:58.408Z,0
2018-10-12T03:50:58.156Z,0
2018-10-12T03:52:12.836Z,0
2018-10-12T03:52:58.193Z,0
2018-10-12T03:54:58.496Z,0
2018-10-12T03:55:58.515Z,0
2018-10-12T03:57:13.198Z,0
2018-10-12T03:57:58.555Z,0
2018-10-12T03:58:58.570Z,0
2018-10-12T03:59:58.594Z,0
2018-10-12T04:01:13.121Z,0
2018-10-12T04:01:58.642Z,0
2018-10-12T04:02:59.194Z,0
2018-10-12T04:04:13.080Z,0
2018-10-12T04:04:58.700Z,0
2018-10-12T04:05:58.723Z,0
2018-10-12T04:06:58.779Z,0
2018-10-12T04:08:13.410Z,0
2018-10-12T04:08:58.770Z,0
2018-10-12T04:10:13.456Z,0
2018-10-12T04:10:58.556Z,0
2018-10-12T04:11:58.834Z,0
2018-10-12T04:12:58.854Z,0
2018-10-12T04:13:58.908Z,0
2018-10-12T04:14:58.894Z,0
2018-10-12T04:15:58.912Z,0
2018-10-12T04:17:13.337Z,0
2018-10-12T04:18:13.354Z,0
2018-10-12T04:18:58.980Z,0
2018-10-12T04:19:58.989Z,0
2018-10-12T04:20:58.752Z,0
2018-10-12T04:21:59.027Z,0
2018-10-12T04:22:59.056Z,0
2018-10-12T04:24:13.725Z,0
2018-10-12T04:24:59.096Z,0
2018-10-12T04:25:59.112Z,0
2018-10-12T04:26:59.129Z,0
2018-10-12T04:27:59.150Z,0
2018-10-12T04:28:59.174Z,0
2018-10-12T04:29:59.193Z,0
2018-10-12T04:31:13.874Z,0
2018-10-12T04:31:59.223Z,0
2018-10-12T04:32:58.989Z,0
2018-10-12T04:34:13.927Z,0
2018-10-12T04:34:59.288Z,0
2018-10-12T04:35:59.307Z,0
2018-10-12T04:36:59.068Z,0
2018-10-12T04:37:59.095Z,0
2018-10-12T04:39:13.768Z,0
2018-10-12T04:39:59.389Z,0
2018-10-12T04:41:14.095Z,0
2018-10-12T04:41:59.220Z,0
2018-10-12T04:42:59.188Z,0
2018-10-12T04:43:59.466Z,0
2018-10-12T04:44:59.485Z,0
2018-10-12T04:45:58.989Z,4
2018-10-12T04:47:59.542Z,0
2018-10-12T04:48:59.573Z,4
2018-10-12T04:49:59.350Z,4
2018-10-12T04:50:59.349Z,4
2018-10-12T04:51:59.635Z,0
2018-10-12T04:52:59.645Z,4
2018-10-12T04:53:59.516Z,8
2018-10-12T04:54:59.457Z,8
2018-10-12T04:56:14.108Z,8
2018-10-12T04:56:59.723Z,8
2018-10-12T04:57:59.482Z,12
2018-10-12T04:58:59.758Z,12
2018-10-12T04:59:59.777Z,12
2018-10-12T05:01:00.112Z,20
2018-10-12T05:01:59.832Z,24
2018-10-12T05:03:59.631Z,32
2018-10-12T05:04:59.616Z,36
2018-10-12T05:05:59.896Z,40
2018-10-12T05:06:59.662Z,52
2018-10-12T05:07:59.903Z,56
2018-10-12T05:08:59.701Z,68
2018-10-12T05:09:59.973Z,76
2018-10-12T05:11:14.407Z,88
2018-10-12T05:11:59.759Z,100
2018-10-12T05:13:00.105Z,112
2018-10-12T05:15:00.077Z,144
2018-10-12T05:15:59.864Z,160
2018-10-12T05:16:59.861Z,176
2018-10-12T05:18:14.795Z,204
2018-10-12T05:19:14.834Z,224
2018-10-12T05:20:14.830Z,248
2018-10-12T05:21:00.245Z,268
2018-10-12T05:22:00.486Z,292
2018-10-12T05:22:59.975Z,320
2018-10-12T05:24:00.250Z,348
2018-10-12T05:25:00.304Z,380
2018-10-12T05:27:14.973Z,452
2018-10-12T05:28:00.331Z,476
2018-10-12T05:29:00.525Z,516
2018-10-12T05:30:00.431Z,556
2018-10-12T05:31:00.391Z,596
2018-10-12T05:32:00.406Z,640
2018-10-12T05:33:00.165Z,684
2018-10-12T05:33:59.932Z,732
2018-10-12T05:35:00.464Z,784
2018-10-12T05:36:00.736Z,840
2018-10-12T05:38:00.526Z,952
2018-10-12T05:39:15.206Z,1028
2018-10-12T05:40:15.224Z,1096
2018-10-12T05:41:00.581Z,1148
2018-10-12T05:42:00.357Z,1216
2018-10-12T05:43:15.906Z,1308
2018-10-12T05:44:15.475Z,1384
2018-10-12T05:45:00.401Z,1440
2018-10-12T05:46:00.686Z,1524
2018-10-12T05:47:00.450Z,1604
2018-10-12T05:48:00.462Z,1688
2018-10-12T05:49:01.417Z,1780
2018-10-12T05:50:00.759Z,1868
2018-10-12T05:51:00.780Z,1960
2018-10-12T05:52:00.538Z,2048
2018-10-12T05:53:00.813Z,2148
2018-10-12T05:54:00.575Z,2244
2018-10-12T05:55:15.517Z,2372
2018-10-12T05:56:00.778Z,2456
2018-10-12T05:57:00.634Z,3076
2018-10-12T05:58:00.912Z,5492
2018-10-12T05:59:15.588Z,9952
2018-10-12T06:00:00.693Z,11008
2018-10-12T06:01:15.645Z,11680
2018-10-12T06:02:00.729Z,10848
2018-10-12T06:05:01.054Z,14304
2018-10-12T06:06:01.073Z,15296
2018-10-12T06:07:01.106Z,15680
2018-10-12T06:08:15.776Z,16608
2018-10-12T06:09:15.797Z,17888
2018-10-12T06:10:01.331Z,17984
2018-10-12T06:11:01.188Z,17792
2018-10-12T06:12:01.203Z,18688
2018-10-12T06:13:01.223Z,19808
2018-10-12T06:14:15.905Z,20448
2018-10-12T06:15:01.277Z,20736
2018-10-12T06:16:01.257Z,21728
2018-10-12T06:17:01.386Z,23136
2018-10-12T06:18:15.738Z,23456
2018-10-12T06:19:01.417Z,24064
2018-10-12T06:20:01.123Z,23392
2018-10-12T06:21:16.075Z,23616
2018-10-12T06:22:01.431Z,24768
2018-10-12T06:23:01.202Z,25408
2018-10-12T06:24:01.475Z,25184
2018-10-12T06:25:00.990Z,25312
2018-10-12T06:26:01.270Z,26080
2018-10-12T06:28:01.314Z,27712
2018-10-12T06:29:16.258Z,28192
2018-10-12T06:30:16.281Z,27904
2018-10-12T06:31:16.305Z,28672
2018-10-12T06:32:01.411Z,29216
2018-10-12T06:33:02.238Z,28896
2018-10-12T06:34:01.718Z,29248
2018-10-12T06:37:01.538Z,30720
2018-10-12T06:38:01.821Z,31424
2018-10-12T06:39:01.839Z,30816
2018-10-12T06:40:01.615Z,32512
2018-10-12T06:41:02.616Z,32928
2018-10-12T06:42:02.038Z,31648
2018-10-12T06:43:01.948Z,33184
2018-10-12T06:44:02.063Z,34432
2018-10-12T06:45:01.739Z,34496
2018-10-12T06:46:16.834Z,34816
2018-10-12T06:47:02.045Z,36192
2018-10-12T06:48:02.070Z,37472
2018-10-12T06:49:02.093Z,36608
2018-10-12T06:50:02.113Z,34976
2018-10-12T06:51:01.880Z,37248
2018-10-12T06:52:01.912Z,39456
2018-10-12T06:53:02.195Z,39168
2018-10-12T06:54:02.675Z,38112
2018-10-12T06:55:02.250Z,37984
2018-10-12T06:56:02.270Z,39168
2018-10-12T06:57:02.041Z,40512
2018-10-12T06:59:02.343Z,40192
2018-10-12T07:00:02.920Z,42368
2018-10-12T07:01:02.405Z,42912
2018-10-12T07:02:17.095Z,42304
2018-10-12T07:03:17.110Z,42336
2018-10-12T07:04:02.234Z,42784
2018-10-12T07:05:01.985Z,41568
2018-10-12T07:06:02.529Z,41504
2018-10-12T07:07:02.553Z,42752
2018-10-12T07:08:02.580Z,41216
2018-10-12T07:09:02.608Z,42592
2018-10-12T07:10:02.628Z,44128
2018-10-12T07:12:02.792Z,41600
2018-10-12T07:13:17.373Z,42400
2018-10-12T07:14:03.235Z,44000
2018-10-12T07:15:02.756Z,44128
2018-10-12T07:16:02.783Z,43328
2018-10-12T07:17:02.823Z,41600
2018-10-12T07:18:17.496Z,43040
2018-10-12T07:19:02.863Z,44512
2018-10-12T07:20:17.291Z,44832
2018-10-12T07:21:17.583Z,44448
2018-10-12T07:22:02.684Z,43968
2018-10-12T07:23:02.972Z,45152
2018-10-12T07:24:02.997Z,43936
2018-10-12T07:25:03.016Z,41984
2018-10-12T07:26:03.529Z,44544
2018-10-12T07:27:03.069Z,44896
2018-10-12T07:28:17.763Z,44672
2018-10-12T07:29:17.521Z,44576
2018-10-12T07:30:03.148Z,43808
2018-10-12T07:31:02.911Z,42880
2018-10-12T07:32:03.205Z,42944
2018-10-12T07:33:03.229Z,43168
2018-10-12T07:34:17.649Z,44064
2018-10-12T07:35:17.936Z,44384
2018-10-12T07:36:17.701Z,43808
2018-10-12T07:37:03.161Z,42720
2018-10-12T07:38:03.368Z,43328
2018-10-12T07:39:03.379Z,42432
2018-10-12T07:40:02.884Z,41632
2018-10-12T07:41:03.427Z,42912
2018-10-12T07:42:17.860Z,41504
2018-10-12T07:43:03.474Z,42368
2018-10-12T07:44:03.507Z,45120
2018-10-12T07:45:03.276Z,43712
2018-10-12T07:46:03.300Z,40416
2018-10-12T07:47:03.624Z,42528
2018-10-12T07:48:03.929Z,42816
2018-10-12T07:49:18.032Z,42208
2018-10-12T07:50:18.317Z,43360
2018-10-12T07:51:03.428Z,42464
2018-10-12T07:52:18.366Z,41984
2018-10-12T07:53:03.810Z,42880
2018-10-12T07:54:03.856Z,42944
2018-10-12T07:55:03.785Z,42720
2018-10-12T07:56:03.827Z,41632
2018-10-12T07:58:03.602Z,39712
2018-10-12T07:59:03.634Z,40768
2018-10-12T08:00:04.106Z,40640
2018-10-12T08:01:03.940Z,41248
2018-10-12T08:02:03.805Z,41376
2018-10-12T08:03:03.730Z,41056
2018-10-12T08:04:04.017Z,39360
2018-10-12T08:05:04.053Z,38976
2018-10-12T08:07:04.093Z,38752
2018-10-12T08:08:03.859Z,38592
2018-10-12T08:09:03.882Z,38592
2018-10-12T08:10:04.167Z,39296
2018-10-12T08:12:04.220Z,39776
2018-10-12T08:13:04.342Z,38784
2018-10-12T08:14:19.317Z,39136
2018-10-12T08:15:18.696Z,37088
2018-10-12T08:17:04.384Z,36800
2018-10-12T08:18:04.370Z,36032
2018-10-12T08:19:03.886Z,35072
2018-10-12T08:20:04.166Z,33536
2018-10-12T08:21:19.106Z,34752
2018-10-12T08:22:04.214Z,34624
2018-10-12T08:23:04.506Z,33632
2018-10-12T08:24:04.522Z,33024
2018-10-12T08:25:04.044Z,32320
2018-10-12T08:26:04.058Z,33024
2018-10-12T08:27:05.092Z,32992
2018-10-12T08:28:04.366Z,33408
2018-10-12T08:29:04.648Z,32608
2018-10-12T08:30:04.680Z,30272
2018-10-12T08:31:04.448Z,28608
2018-10-12T08:32:04.467Z,28672
2018-10-12T08:34:04.524Z,27136
2018-10-12T08:35:04.818Z,26656
2018-10-12T08:36:04.323Z,26144
2018-10-12T08:37:19.257Z,26080
2018-10-12T08:38:19.541Z,25792
2018-10-12T08:39:19.569Z,26368
2018-10-12T08:40:04.676Z,27584
2018-10-12T08:41:04.992Z,28576
2018-10-12T08:42:05.089Z,31520
2018-10-12T08:43:04.751Z,29984
2018-10-12T08:44:05.039Z,25792
2018-10-12T08:45:04.807Z,24896
2018-10-12T08:46:05.083Z,25344
2018-10-12T08:47:05.166Z,26336
2018-10-12T08:48:05.137Z,25888
2018-10-12T08:49:04.905Z,25472
2018-10-12T08:50:04.673Z,24896
2018-10-12T08:51:04.698Z,23488
2018-10-12T08:52:04.984Z,23296
2018-10-12T08:53:19.947Z,22848
2018-10-12T08:54:04.775Z,22944
2018-10-12T08:55:05.328Z,22208
2018-10-12T08:56:05.349Z,22304
2018-10-12T08:58:05.398Z,21664
2018-10-12T08:59:05.527Z,21824
2018-10-12T09:00:05.449Z,21504
2018-10-12T09:01:05.214Z,20832
2018-10-12T09:02:05.241Z,20448
2018-10-12T09:03:05.896Z,20416
2018-10-12T09:04:05.394Z,20096
2018-10-12T09:05:20.245Z,19744
2018-10-12T09:06:05.600Z,19648
2018-10-12T09:07:05.662Z,19552
2018-10-12T09:08:05.653Z,19264
2018-10-12T09:09:20.089Z,18784
2018-10-12T09:10:05.700Z,18816
2018-10-12T09:11:05.733Z,18688
2018-10-12T09:12:20.431Z,18272
2018-10-12T09:13:05.788Z,18240
2018-10-12T09:14:05.297Z,18208
2018-10-12T09:15:05.889Z,17952
2018-10-12T09:16:05.385Z,17824
2018-10-12T09:17:05.944Z,17728
2018-10-12T09:19:05.938Z,17472
2018-10-12T09:20:06.022Z,17184
2018-10-12T09:21:05.490Z,17152
2018-10-12T09:22:20.781Z,16896
2018-10-12T09:23:05.791Z,16832
2018-10-12T09:24:20.843Z,16736
2018-10-12T09:25:06.107Z,16704
2018-10-12T09:26:05.605Z,16428
2018-10-12T09:27:05.960Z,16268
2018-10-12T09:28:06.178Z,16200
2018-10-12T09:29:05.947Z,16076
2018-10-12T09:30:05.997Z,16112
2018-10-12T09:31:06.004Z,15956
2018-10-12T09:32:06.314Z,15864
2018-10-12T09:33:06.054Z,15820
2018-10-12T09:34:06.332Z,15800
2018-10-12T09:35:06.484Z,15888
2018-10-12T09:36:06.402Z,15844
2018-10-12T09:37:06.901Z,15792
2018-10-12T09:38:06.380Z,15744
2018-10-12T09:39:20.616Z,15688
2018-10-12T09:40:06.244Z,15676
2018-10-12T09:41:06.519Z,15576
2018-10-12T09:42:06.554Z,15444
2018-10-12T09:43:06.068Z,15376
2018-10-12T09:45:21.293Z,15164
2018-10-12T09:46:06.399Z,15024
2018-10-12T09:48:06.705Z,14880
2018-10-12T09:49:06.617Z,14792
2018-10-12T09:50:21.346Z,14640
2018-10-12T09:51:06.795Z,14568
2018-10-12T09:52:06.552Z,14480
2018-10-12T09:53:06.835Z,14384
2018-10-12T09:54:06.607Z,14268
2018-10-12T09:55:06.627Z,14144
2018-10-12T09:56:21.581Z,14040
2018-10-12T09:57:06.942Z,13936
2018-10-12T09:58:06.711Z,13824
2018-10-12T09:59:06.746Z,13720
2018-10-12T10:00:06.767Z,13660
2018-10-12T10:01:07.052Z,13580
2018-10-12T10:02:06.890Z,13444
2018-10-12T10:03:06.588Z,13256
2018-10-12T10:04:07.129Z,12960
2018-10-12T10:05:07.157Z,12800
2018-10-12T10:06:06.921Z,12696
2018-10-12T10:07:06.687Z,12484
2018-10-12T10:08:07.507Z,12240
2018-10-12T10:09:22.088Z,12040
2018-10-12T10:10:06.765Z,11952
2018-10-12T10:12:21.736Z,11404
2018-10-12T10:13:21.764Z,10908
2018-10-12T10:14:06.874Z,10520
2018-10-12T10:15:07.414Z,10044
2018-10-12T10:16:07.432Z,9620
2018-10-12T10:17:07.206Z,9196
2018-10-12T10:18:07.242Z,8828
2018-10-12T10:19:07.629Z,8484
2018-10-12T10:20:07.292Z,8164
2018-10-12T10:21:07.307Z,7844
2018-10-12T10:22:07.597Z,7592
2018-10-12T10:23:22.299Z,7272
2018-10-12T10:24:07.393Z,7096
2018-10-12T10:25:07.971Z,6900
2018-10-12T10:27:07.729Z,6528
2018-10-12T10:28:22.406Z,6312
2018-10-12T10:29:07.911Z,6180
2018-10-12T10:30:07.279Z,6024
2018-10-12T10:31:22.223Z,5848
2018-10-12T10:32:08.008Z,5760
2018-10-12T10:33:07.877Z,5652
2018-10-12T10:34:22.558Z,5528
2018-10-12T10:35:07.928Z,5456
2018-10-12T10:36:07.440Z,5372
2018-10-12T10:37:07.972Z,5292
2018-10-12T10:38:08.004Z,5212
2018-10-12T10:39:08.144Z,5156
2018-10-12T10:40:07.787Z,5096
2018-10-12T10:41:07.822Z,5044
2018-10-12T10:42:08.098Z,5004
2018-10-12T10:43:07.606Z,4964
2018-10-12T10:44:22.810Z,4928
2018-10-12T10:45:07.917Z,4916
2018-10-12T10:46:08.267Z,4888
2018-10-12T10:47:07.713Z,4868
2018-10-12T10:48:08.253Z,4848
2018-10-12T10:49:08.277Z,4828
2018-10-12T10:50:08.041Z,4812
2018-10-12T10:51:08.064Z,4792
2018-10-12T10:52:08.100Z,4776
2018-10-12T10:53:08.393Z,4772
2018-10-12T10:54:23.060Z,4784
2018-10-12T10:55:08.165Z,4792
2018-10-12T10:56:08.191Z,4792
2018-10-12T10:57:08.229Z,4792
2018-10-12T10:58:08.237Z,4788
2018-10-12T10:59:23.181Z,4772
2018-10-12T11:00:08.315Z,4768
2018-10-12T11:01:23.405Z,4764
2018-10-12T11:02:08.091Z,4764
2018-10-12T11:03:23.024Z,4756
2018-10-12T11:04:08.389Z,4748
2018-10-12T11:06:23.588Z,4732
2018-10-12T11:07:08.469Z,4736
2018-10-12T11:09:08.795Z,4760
2018-10-12T11:10:08.539Z,4776
2018-10-12T11:11:08.830Z,4784
2018-10-12T11:12:09.110Z,4796
2018-10-12T11:13:08.558Z,4800
2018-10-12T11:14:08.638Z,4808
2018-10-12T11:15:08.919Z,4824
2018-10-12T11:16:08.436Z,4836
2018-10-12T11:17:08.975Z,4836
2018-10-12T11:18:09.001Z,4824
2018-10-12T11:19:08.768Z,4800
2018-10-12T11:20:23.797Z,4788
2018-10-12T11:21:08.828Z,4784
2018-10-12T11:23:23.785Z,4764
2018-10-12T11:24:08.892Z,4760
2018-10-12T11:25:08.921Z,4752
2018-10-12T11:26:08.681Z,4740
2018-10-12T11:27:09.065Z,4740
2018-10-12T11:28:08.988Z,4740
2018-10-12T11:29:09.011Z,4736
2018-10-12T11:30:09.110Z,4736
2018-10-12T11:31:23.979Z,4732
2018-10-12T11:33:24.140Z,4724
2018-10-12T11:34:09.393Z,4728
2018-10-12T11:36:09.183Z,4728
2018-10-12T11:37:09.208Z,4732
2018-10-12T11:38:09.500Z,4744
2018-10-12T11:39:09.258Z,4748
2018-10-12T11:40:09.559Z,4756
2018-10-12T11:42:09.335Z,4752
2018-10-12T11:43:09.365Z,4756
2018-10-12T11:44:09.644Z,4764
2018-10-12T11:45:09.805Z,4776
2018-10-12T11:46:09.694Z,4772
2018-10-12T11:47:24.382Z,4776
2018-10-12T11:48:09.745Z,4796
2018-10-12T11:49:24.170Z,4796
2018-10-12T11:50:09.793Z,4800
2018-10-12T11:51:09.813Z,4808
2018-10-12T11:53:09.867Z,4804
2018-10-12T11:54:09.639Z,4804
2018-10-12T11:55:09.400Z,4804
2018-10-12T11:56:24.607Z,4784
2018-10-12T11:57:24.376Z,4780
2018-10-12T11:58:09.736Z,4768
2018-10-12T11:59:10.022Z,4792
2018-10-12T12:00:09.524Z,4792
2018-10-12T12:01:10.645Z,4792
2018-10-12T12:02:10.085Z,4792
2018-10-12T12:03:39.439Z,4788
2018-10-12T12:04:10.152Z,4788
2018-10-12T12:05:10.165Z,4800
2018-10-12T12:06:09.930Z,4816
2018-10-12T12:07:10.340Z,4820
2018-10-12T12:09:10.271Z,4868
2018-10-12T12:10:24.961Z,4872
2018-10-12T12:11:10.332Z,4868
2018-10-12T12:12:10.344Z,4872
2018-10-12T12:13:10.367Z,4876
2018-10-12T12:14:24.795Z,4884
2018-10-12T12:15:10.165Z,4896
2018-10-12T12:16:09.928Z,4908
2018-10-12T12:17:10.208Z,4916
2018-10-12T12:18:10.497Z,4924
2018-10-12T12:19:39.888Z,4912
2018-10-12T12:20:10.284Z,4912
2018-10-12T12:21:10.576Z,4916
2018-10-12T12:22:10.332Z,4904
2018-10-12T12:23:10.362Z,4900
2018-10-12T12:24:10.663Z,4904
2018-10-12T12:25:25.339Z,4892
2018-10-12T12:26:10.694Z,4880
2018-10-12T12:27:10.717Z,4864
2018-10-12T12:28:25.410Z,4872
2018-10-12T12:29:25.427Z,4876
2018-10-12T12:30:10.793Z,4888
2018-10-12T12:31:10.823Z,4904
2018-10-12T12:32:10.842Z,4892
2018-10-12T12:33:10.865Z,4904
2018-10-12T12:34:25.569Z,4920
2018-10-12T12:35:12.128Z,4932
2018-10-12T12:36:12.116Z,4932
2018-10-12T12:37:10.717Z,4924
2018-10-12T12:38:10.760Z,4916
2018-10-12T12:39:25.435Z,4912
2018-10-12T12:40:10.798Z,4908
2018-10-12T12:41:11.123Z,4900
2018-10-12T12:42:25.758Z,4896
2018-10-12T12:43:25.779Z,4932
2018-10-12T12:44:10.889Z,4944
2018-10-12T12:45:10.918Z,4956
2018-10-12T12:46:10.935Z,4964
2018-10-12T12:47:11.351Z,4940
2018-10-12T12:48:11.761Z,4924
2018-10-12T12:49:10.927Z,4900
2018-10-12T12:50:11.036Z,4892
2018-10-12T12:51:11.324Z,4888
2018-10-12T12:52:11.094Z,4892
2018-10-12T12:53:11.371Z,4884
2018-10-12T12:54:11.400Z,4888
2018-10-12T12:56:11.190Z,4872
2018-10-12T12:57:11.474Z,4872
2018-10-12T12:58:26.157Z,4884
2018-10-12T12:59:11.269Z,4888
2018-10-12T13:00:11.565Z,4880
2018-10-12T13:01:11.057Z,4864
2018-10-12T13:02:11.593Z,4860
2018-10-12T13:03:11.106Z,4868
2018-10-12T13:04:10.871Z,4860
2018-10-12T13:05:11.680Z,4848
2018-10-12T13:06:26.475Z,4848
2018-10-12T13:08:11.496Z,4836
2018-10-12T13:09:11.773Z,4828
2018-10-12T13:10:11.802Z,4820
2018-10-12T13:11:11.560Z,4808
2018-10-12T13:12:11.727Z,4808
2018-10-12T13:13:11.876Z,4816
2018-10-12T13:14:11.900Z,4820
2018-10-12T13:15:26.641Z,4820
2018-10-12T13:16:11.947Z,4816
2018-10-12T13:17:11.971Z,4816
2018-10-12T13:18:26.664Z,4804
2018-10-12T13:19:12.271Z,4796
2018-10-12T13:20:12.055Z,4804
2018-10-12T13:21:11.924Z,4800
2018-10-12T13:22:41.423Z,4800
2018-10-12T13:23:12.131Z,4804
2018-10-12T13:24:11.891Z,4796
2018-10-12T13:25:12.174Z,4780
2018-10-12T13:26:26.362Z,4784
2018-10-12T13:27:12.244Z,4784
2018-10-12T13:28:12.006Z,4784
2018-10-12T13:29:26.938Z,4780
2018-10-12T13:30:12.354Z,4784
2018-10-12T13:31:12.088Z,4792
2018-10-12T13:32:12.623Z,4784
2018-10-12T13:33:12.414Z,4780
2018-10-12T13:34:12.441Z,4764
2018-10-12T13:35:27.092Z,4756
2018-10-12T13:36:12.304Z,4768
2018-10-12T13:37:11.964Z,4776
2018-10-12T13:38:26.906Z,4764
2018-10-12T13:40:12.295Z,4736
2018-10-12T13:41:27.246Z,4736
2018-10-12T13:42:12.351Z,4736
2018-10-12T13:43:12.630Z,4720
2018-10-12T13:44:12.658Z,4692
2018-10-12T13:45:12.424Z,4672
2018-10-12T13:46:27.406Z,4656
2018-10-12T13:47:12.732Z,4636
2018-10-12T13:48:27.162Z,4636
2018-10-12T13:49:26.926Z,4644
2018-10-12T13:50:12.565Z,4648
2018-10-12T13:51:12.831Z,4640
2018-10-12T13:52:12.861Z,4644
2018-10-12T13:53:12.885Z,4620
2018-10-12T13:54:27.514Z,4616
2018-10-12T13:55:12.939Z,4624
2018-10-12T13:56:12.964Z,4620
2018-10-12T13:57:12.985Z,4612
2018-10-12T13:58:27.410Z,4584
2018-10-12T13:59:12.774Z,4564
2018-10-12T14:00:12.826Z,4544
2018-10-12T14:01:13.085Z,4540
2018-10-12T14:02:13.107Z,4552
2018-10-12T14:03:13.140Z,4552
2018-10-12T14:04:13.006Z,4540
2018-10-12T14:05:12.929Z,4532
2018-10-12T14:06:13.212Z,4524
2018-10-12T14:07:13.247Z,4508
2018-10-12T14:08:13.389Z,4488
2018-10-12T14:09:42.620Z,4448
2018-10-12T14:10:13.313Z,4444
2018-10-12T14:11:13.344Z,4424
2018-10-12T14:12:12.928Z,4408
2018-10-12T14:13:13.131Z,4392
2018-10-12T14:14:13.157Z,4368
2018-10-12T14:15:13.441Z,4364
2018-10-12T14:16:13.207Z,4348
2018-10-12T14:17:13.241Z,4336
2018-10-12T14:18:13.781Z,4324
2018-10-12T14:19:28.320Z,4316
2018-10-12T14:20:13.155Z,4304
2018-10-12T14:21:13.688Z,4288
2018-10-12T14:22:13.099Z,4280
2018-10-12T14:23:13.649Z,4260
2018-10-12T14:24:13.417Z,4260
2018-10-12T14:25:13.961Z,4256
2018-10-12T14:26:13.490Z,4244
2018-10-12T14:27:13.745Z,4224
2018-10-12T14:28:13.771Z,4208
2018-10-12T14:29:13.792Z,4192
2018-10-12T14:30:13.569Z,4172
2018-10-12T14:31:13.861Z,4164
2018-10-12T14:32:13.631Z,4148
2018-10-12T14:33:28.556Z,4132